createdAt,value
2022-11-15T00:04:20.135Z,5.10
2022-11-15T00:08:40.822Z,5.07
2022-11-15T00:13:04.962Z,5.02
2022-11-15T00:17:25.373Z,5.04
2022-11-15T00:21:46.164Z,5.03
2022-11-15T00:26:07.299Z,5.04
2022-11-15T00:30:28.832Z,5.02
2022-11-15T00:34:49.773Z,5.15
2022-11-15T00:39:10.162Z,5.17
2022-11-15T00:43:31.434Z,5.09
2022-11-15T00:47:52.884Z,4.97
2022-11-15T00:52:13.225Z,5.03
2022-11-15T00:56:34.057Z,5.01
2022-11-15T01:00:55.842Z,5.01
2022-11-15T01:05:17.134Z,4.84
2022-11-15T01:09:37.787Z,4.79
2022-11-15T01:13:58.800Z,4.73
2022-11-15T01:18:19.666Z,4.63
2022-11-15T01:22:40.841Z,4.56
2022-11-15T01:27:01.418Z,4.53
2022-11-15T01:31:22.743Z,4.56
2022-11-15T01:35:43.782Z,4.62
2022-11-15T01:40:04.693Z,4.66
2022-11-15T01:44:34.554Z,4.71
2022-11-15T01:48:57.955Z,4.68
2022-11-15T01:53:22.601Z,4.64
2022-11-15T01:57:46.340Z,4.64
2022-11-15T02:02:06.992Z,4.62
2022-11-15T02:06:27.642Z,4.51
2022-11-15T02:10:48.205Z,4.52
2022-11-15T02:15:10.384Z,4.56
2022-11-15T02:19:33.965Z,4.51
2022-11-15T02:23:57.477Z,4.63
2022-11-15T02:28:45.763Z,4.75
2022-11-15T02:33:23.035Z,4.88
2022-11-15T02:37:46.377Z,4.74
2022-11-15T02:42:37.218Z,4.82
2022-11-15T02:47:14.340Z,4.85
2022-11-15T02:51:34.832Z,4.87
2022-11-15T02:55:57.579Z,4.84
2022-11-15T03:00:22.934Z,4.82
2022-11-15T03:04:49.764Z,4.88
2022-11-15T03:09:13.539Z,4.98
2022-11-15T03:13:41.619Z,5.01
2022-11-15T03:18:09.923Z,5.02
2022-11-15T03:22:36.140Z,4.95
2022-11-15T03:27:00.227Z,4.87
2022-11-15T03:31:45.689Z,4.86
2022-11-15T03:36:09.559Z,4.88
2022-11-15T03:40:46.678Z,4.91
2022-11-15T03:45:23.492Z,5.06
2022-11-15T03:49:47.902Z,5.11
2022-11-15T03:54:08.435Z,5.12
2022-11-15T03:58:29.263Z,5.18
2022-11-15T04:02:49.969Z,5.30
2022-11-15T04:07:11.010Z,5.27
2022-11-15T04:11:31.990Z,5.21
2022-11-15T04:15:53.034Z,5.30
2022-11-15T04:20:41.069Z,5.38
2022-11-15T04:25:01.781Z,5.51
2022-11-15T04:29:38.178Z,5.61
2022-11-15T04:33:59.119Z,5.72
2022-11-15T04:38:20.251Z,5.81
2022-11-15T04:42:43.910Z,5.87
2022-11-15T04:47:04.345Z,5.79
2022-11-15T04:51:24.908Z,5.77
2022-11-15T04:55:47.592Z,5.75
2022-11-15T05:00:17.633Z,5.70
2022-11-15T05:04:38.580Z,5.81
2022-11-15T05:08:59.698Z,6.00
2022-11-15T05:13:20.860Z,6.17
2022-11-15T05:17:42.146Z,6.26
2022-11-15T05:22:03.513Z,6.38
2022-11-15T05:26:24.628Z,6.52
2022-11-15T05:30:46.219Z,6.61
2022-11-15T05:35:13.575Z,6.68
2022-11-15T05:39:34.513Z,6.78
2022-11-15T05:43:55.615Z,6.80
2022-11-15T05:53:19.233Z,6.91
2022-11-15T05:57:47.821Z,6.95
2022-11-15T06:02:14.943Z,7.06
2022-11-15T06:06:38.675Z,7.10
2022-11-15T06:11:10.423Z,7.25
2022-11-15T06:15:45.628Z,7.19
2022-11-15T06:20:08.328Z,7.33
2022-11-15T06:24:29.725Z,7.34
2022-11-15T06:28:52.528Z,7.42
2022-11-15T06:33:14.993Z,7.48
2022-11-15T06:37:38.461Z,7.57
2022-11-15T06:42:02.688Z,7.73
2022-11-15T06:46:26.751Z,7.78
2022-11-15T06:51:07.329Z,7.83
2022-11-15T06:55:55.503Z,7.85
2022-11-15T07:00:20.466Z,7.88
2022-11-15T07:04:45.541Z,7.78
2022-11-15T07:09:09.084Z,7.79
2022-11-15T07:13:36.193Z,7.72
2022-11-15T07:18:02.004Z,7.77
2022-11-15T07:22:22.931Z,7.78
2022-11-15T07:26:44.861Z,7.98
2022-11-15T07:31:08.285Z,8.17
2022-11-15T07:35:31.081Z,8.35
2022-11-15T07:39:51.493Z,8.32
2022-11-15T07:44:12.342Z,8.43
2022-11-15T07:48:43.314Z,8.63
2022-11-15T07:53:05.980Z,8.87
2022-11-15T07:57:26.455Z,9.11
2022-11-15T08:01:48.138Z,9.26
2022-11-15T08:06:09.017Z,9.36
2022-11-15T08:10:36.354Z,9.32
2022-11-15T08:15:01.231Z,9.44
2022-11-15T08:19:22.978Z,9.55
2022-11-15T08:23:44.690Z,9.76
2022-11-15T08:28:07.565Z,9.97
2022-11-15T08:32:27.998Z,10.12
2022-11-15T08:36:49.095Z,10.22
2022-11-15T08:41:19.628Z,10.15
2022-11-15T08:45:40.413Z,10.09
2022-11-15T08:50:01.625Z,10.27
2022-11-15T08:54:25.408Z,10.41
2022-11-15T08:58:46.196Z,10.41
2022-11-15T09:03:08.625Z,10.56
2022-11-15T09:07:31.069Z,10.68
2022-11-15T09:11:55.725Z,10.71
2022-11-15T09:16:18.929Z,10.77
2022-11-15T09:20:40.479Z,10.70
2022-11-15T09:25:01.257Z,10.82
2022-11-15T09:29:22.861Z,10.94
2022-11-15T09:33:48.890Z,11.01
2022-11-15T09:38:11.081Z,11.15
2022-11-15T09:42:57.061Z,11.36
2022-11-15T09:47:43.361Z,11.50
2022-11-15T09:52:11.305Z,11.61
2022-11-15T09:56:21.173Z,11.71
2022-11-15T10:00:46.412Z,11.69
2022-11-15T10:04:49.464Z,11.36
2022-11-15T10:09:04.253Z,11.49
2022-11-15T10:13:15.889Z,11.58
2022-11-15T10:17:56.936Z,11.61
2022-11-15T10:22:28.130Z,11.59
2022-11-15T10:26:31.248Z,11.50
2022-11-15T10:30:37.136Z,11.47
2022-11-15T10:44:08.714Z,10.67
2022-11-15T10:48:37.626Z,10.68
2022-11-15T10:52:46.891Z,10.69
2022-11-15T10:56:56.346Z,10.76
2022-11-15T11:01:20.595Z,10.77
2022-11-15T11:05:42.304Z,10.86
2022-11-15T11:09:44.689Z,11.05
2022-11-15T11:13:46.864Z,11.13
2022-11-15T11:17:58.489Z,11.17
2022-11-15T11:22:23.204Z,11.19
2022-11-15T11:26:31.538Z,11.33
2022-11-15T11:31:04.997Z,11.35
2022-11-15T11:35:15.470Z,11.18
2022-11-15T11:39:33.014Z,11.21
2022-11-15T11:44:13.630Z,11.29
2022-11-15T11:48:30.340Z,11.37
2022-11-15T11:52:40.357Z,11.44
2022-11-15T11:56:45.471Z,11.50
2022-11-15T12:00:55.706Z,11.57
2022-11-15T12:05:24.063Z,11.70
2022-11-15T12:10:00.921Z,11.65
2022-11-15T12:14:11.408Z,11.66
2022-11-15T12:18:17.804Z,11.73
2022-11-15T12:22:38.321Z,11.71
2022-11-15T12:26:55.621Z,11.74
2022-11-15T12:31:06.434Z,11.88
2022-11-15T12:35:26.411Z,11.93
2022-11-15T12:40:05.838Z,11.94
2022-11-15T12:44:13.761Z,11.98
2022-11-15T12:48:19.438Z,11.89
2022-11-15T12:52:22.231Z,11.89
2022-11-15T12:56:26.698Z,11.91
2022-11-15T13:00:31.773Z,11.72
2022-11-15T13:04:35.706Z,11.86
2022-11-15T13:08:41.087Z,11.84
2022-11-15T13:12:49.086Z,11.73
2022-11-15T13:17:01.653Z,11.70
2022-11-15T13:21:42.578Z,11.63
2022-11-15T13:26:07.540Z,11.64
2022-11-15T13:30:21.188Z,11.70
2022-11-15T13:34:53.241Z,11.63
2022-11-15T13:39:27.024Z,11.70
2022-11-15T13:43:35.135Z,11.67
2022-11-15T13:47:40.983Z,11.64
2022-11-15T13:51:52.452Z,11.63
2022-11-15T13:55:59.225Z,11.60
2022-11-15T14:00:23.228Z,11.55
2022-11-15T14:04:30.788Z,11.48
2022-11-15T14:08:34.737Z,11.23
2022-11-15T14:12:38.278Z,11.17
2022-11-15T14:16:43.386Z,11.22
2022-11-15T14:20:48.655Z,11.19
2022-11-15T14:25:23.284Z,11.10
2022-11-15T14:29:30.875Z,11.10
2022-11-15T14:33:38.127Z,11.04
2022-11-15T14:37:41.350Z,10.98
2022-11-15T14:41:43.911Z,10.96
2022-11-15T14:45:49.184Z,10.93
2022-11-15T14:49:52.090Z,11.09
2022-11-15T14:53:56.389Z,11.05
2022-11-15T14:58:05.080Z,10.89
2022-11-15T15:02:29.038Z,11.03
2022-11-15T15:06:31.869Z,11.06
2022-11-15T15:10:40.766Z,11.09
2022-11-15T15:14:43.570Z,11.06
2022-11-15T15:18:46.236Z,11.01
2022-11-15T15:22:48.527Z,10.97
2022-11-15T15:26:50.783Z,10.92
2022-11-15T15:30:54.282Z,10.90
2022-11-15T15:35:01.216Z,10.85
2022-11-15T15:39:04.925Z,10.89
2022-11-15T15:43:10.032Z,10.89
2022-11-15T15:47:17.986Z,10.86
2022-11-15T15:51:20.835Z,10.92
2022-11-15T15:55:23.746Z,10.76
2022-11-15T15:59:25.796Z,10.36
2022-11-15T16:03:28.726Z,10.39
2022-11-15T16:07:31.003Z,10.50
2022-11-15T16:11:33.390Z,10.33
2022-11-15T16:15:36.456Z,10.32
2022-11-15T16:19:38.538Z,10.41
2022-11-15T16:23:40.585Z,10.43
2022-11-15T16:27:45.958Z,10.55
2022-11-15T16:31:48.202Z,10.70
2022-11-15T16:35:50.357Z,10.78
2022-11-15T16:39:55.926Z,10.79
2022-11-15T16:44:00.770Z,10.73
2022-11-15T16:54:10.834Z,10.74
2022-11-15T16:58:12.926Z,10.78
2022-11-15T17:02:15.256Z,10.88
2022-11-15T17:06:18.995Z,10.86
2022-11-15T17:10:22.845Z,10.87
2022-11-15T17:14:24.956Z,10.87
2022-11-15T17:18:27.007Z,10.86
2022-11-15T17:22:29.032Z,10.86
2022-11-15T17:26:35.055Z,10.86
2022-11-15T17:30:41.951Z,10.81
2022-11-15T17:34:44.331Z,10.84
2022-11-15T17:38:50.497Z,10.90
2022-11-15T17:42:53.445Z,10.94
2022-11-15T17:46:55.752Z,10.86
2022-11-15T17:51:00.661Z,10.90
2022-11-15T17:55:03.081Z,10.95
2022-11-15T17:59:09.055Z,11.00
2022-11-15T18:03:15.356Z,10.92
2022-11-15T18:07:17.548Z,10.92
2022-11-15T18:11:22.808Z,10.83
2022-11-15T18:15:24.912Z,10.85
2022-11-15T18:19:26.981Z,10.89
2022-11-15T18:23:29.373Z,10.93
2022-11-15T18:27:31.518Z,10.88
2022-11-15T18:31:33.680Z,10.91
2022-11-15T18:35:35.859Z,10.91
2022-11-15T18:39:38.017Z,10.70
2022-11-15T18:43:40.690Z,10.79
2022-11-15T18:47:42.795Z,10.87
2022-11-15T18:51:44.907Z,10.86
2022-11-15T18:55:46.980Z,10.85
2022-11-15T18:59:49.752Z,10.81
2022-11-15T19:03:54.245Z,10.82
2022-11-15T19:07:56.268Z,10.90
2022-11-15T19:11:58.836Z,10.91
2022-11-15T19:16:02.594Z,10.96
2022-11-15T19:20:05.330Z,10.98
2022-11-15T19:24:07.851Z,10.99
2022-11-15T19:28:12.015Z,10.98
2022-11-15T19:32:14.269Z,10.98
2022-11-15T19:36:19.955Z,10.97
2022-11-15T19:40:21.995Z,10.95
2022-11-15T19:44:26.356Z,10.85
2022-11-15T19:48:29.999Z,10.80
2022-11-15T19:52:32.295Z,10.83
2022-11-15T19:56:35.538Z,10.79
2022-11-15T20:00:37.836Z,10.80
2022-11-15T20:04:41.067Z,10.87
2022-11-15T20:08:44.627Z,10.60
2022-11-15T20:12:46.748Z,10.65
2022-11-15T20:16:53.958Z,10.73
2022-11-15T20:20:58.550Z,10.80
2022-11-15T20:25:00.640Z,10.70
2022-11-15T20:29:03.593Z,10.79
2022-11-15T20:33:05.623Z,10.81
2022-11-15T20:37:08.110Z,10.85
2022-11-15T20:41:10.719Z,10.91
2022-11-15T20:45:12.775Z,10.91
2022-11-15T20:49:14.989Z,10.94
2022-11-15T20:53:19.080Z,11.00
2022-11-15T20:57:21.222Z,11.00
2022-11-15T21:01:24.775Z,10.97
2022-11-15T21:05:27.165Z,10.95
2022-11-15T21:09:49.382Z,10.92
2022-11-15T21:13:51.712Z,10.95
2022-11-15T21:17:53.995Z,10.93
2022-11-15T21:21:56.132Z,10.89
2022-11-15T21:25:58.414Z,10.91
2022-11-15T21:30:00.454Z,10.79
2022-11-15T21:34:03.748Z,10.75
2022-11-15T21:38:05.915Z,10.61
2022-11-15T21:42:08.058Z,10.57
2022-11-15T21:46:10.135Z,10.69
2022-11-15T21:50:12.145Z,10.75
2022-11-15T21:54:14.369Z,10.77
2022-11-15T21:58:16.416Z,10.72
2022-11-15T22:02:18.418Z,10.72
2022-11-15T22:06:20.927Z,10.76
2022-11-15T22:10:23.045Z,10.78
2022-11-15T22:14:25.182Z,10.78
2022-11-15T22:18:27.360Z,10.77
2022-11-15T22:22:29.553Z,10.77
2022-11-15T22:26:31.657Z,10.75
2022-11-15T22:30:33.682Z,10.86
2022-11-15T22:34:35.729Z,10.86
2022-11-15T22:38:37.905Z,10.80
2022-11-15T22:42:39.886Z,10.88
2022-11-15T22:46:41.912Z,10.80
2022-11-15T22:50:44.936Z,10.73
2022-11-15T22:54:47.056Z,10.84
2022-11-15T22:58:49.259Z,10.86
2022-11-15T23:02:54.392Z,10.92
2022-11-15T23:06:56.834Z,10.94
2022-11-15T23:11:22.095Z,10.97
2022-11-15T23:15:28.339Z,11.02
2022-11-15T23:19:34.261Z,11.12
2022-11-15T23:23:36.939Z,11.16
2022-11-15T23:27:39.619Z,11.16
2022-11-15T23:32:02.508Z,11.16
2022-11-15T23:36:06.236Z,11.20
2022-11-15T23:40:09.328Z,11.20
2022-11-15T23:44:11.782Z,11.21
2022-11-15T23:48:14.343Z,11.23
2022-11-15T23:52:18.653Z,11.22
2022-11-15T23:56:22.078Z,11.21
